sensor_id;sensor_type;location;lat;lon;timestamp;pressure;altitude;pressure_sealevel;temperature;humidity
35619;BME280;21743;55.786;37.168;2022-08-01T00:01:56;99964.94;;;14.51;70.08
35619;BME280;21743;55.786;37.168;2022-08-01T00:04:21;99956.91;;;14.44;70.35
35619;BME280;21743;55.786;37.168;2022-08-01T00:06:47;99948.38;;;14.42;70.55
35619;BME280;21743;55.786;37.168;2022-08-01T00:09:13;99957.06;;;14.42;70.25
35619;BME280;21743;55.786;37.168;2022-08-01T00:11:39;99953.25;;;14.37;70.63
35619;BME280;21743;55.786;37.168;2022-08-01T00:14:06;99945.59;;;14.35;70.43
35619;BME280;21743;55.786;37.168;2022-08-01T00:16:31;99945.25;;;14.38;70.31
35619;BME280;21743;55.786;37.168;2022-08-01T00:18:57;99944.59;;;14.36;70.33
35619;BME280;21743;55.786;37.168;2022-08-01T00:21:23;99944.59;;;14.36;70.35
35619;BME280;21743;55.786;37.168;2022-08-01T00:23:49;99939.53;;;14.35;70.17
35619;BME280;21743;55.786;37.168;2022-08-01T00:26:14;99946.22;;;14.29;70.50
35619;BME280;21743;55.786;37.168;2022-08-01T00:28:40;99937.72;;;14.27;70.64
35619;BME280;21743;55.786;37.168;2022-08-01T00:31:07;99938.19;;;14.23;70.40
35619;BME280;21743;55.786;37.168;2022-08-01T00:33:33;99951.94;;;14.25;70.67
35619;BME280;21743;55.786;37.168;2022-08-01T00:35:58;99941.78;;;14.22;70.81
35619;BME280;21743;55.786;37.168;2022-08-01T00:38:24;99946.88;;;14.23;70.81
35619;BME280;21743;55.786;37.168;2022-08-01T00:40:50;99952.44;;;14.20;70.75
35619;BME280;21743;55.786;37.168;2022-08-01T00:43:16;99946.38;;;14.12;70.87
35619;BME280;21743;55.786;37.168;2022-08-01T00:45:41;99957.81;;;14.11;71.20
35619;BME280;21743;55.786;37.168;2022-08-01T00:48:08;99939.84;;;14.16;70.93
35619;BME280;21743;55.786;37.168;2022-08-01T00:50:34;99947.03;;;14.14;70.93
35619;BME280;21743;55.786;37.168;2022-08-01T00:53:00;99952.59;;;14.11;70.84
35619;BME280;21743;55.786;37.168;2022-08-01T00:55:28;99949.31;;;14.08;71.25
35619;BME280;21743;55.786;37.168;2022-08-01T00:57:55;99956.03;;;14.11;70.93
35619;BME280;21743;55.786;37.168;2022-08-01T01:00:22;99946.03;;;14.06;71.01
35619;BME280;21743;55.786;37.168;2022-08-01T01:02:47;99939.66;;;14.01;71.20
35619;BME280;21743;55.786;37.168;2022-08-01T01:05:13;99942.94;;;14.03;71.44
35619;BME280;21743;55.786;37.168;2022-08-01T01:07:50;99942.13;;;14.02;71.25
35619;BME280;21743;55.786;37.168;2022-08-01T01:10:56;99947.00;;;14.05;71.19
35619;BME280;21743;55.786;37.168;2022-08-01T01:13:32;99939.50;;;14.02;71.20
35619;BME280;21743;55.786;37.168;2022-08-01T01:16:11;99937.34;;;14.06;71.03
35619;BME280;21743;55.786;37.168;2022-08-01T01:18:45;99932.63;;;14.01;71.17
35619;BME280;21743;55.786;37.168;2022-08-01T01:26:38;99935.06;;;13.95;71.22
35619;BME280;21743;55.786;37.168;2022-08-01T01:29:13;99935.88;;;13.95;71.42
35619;BME280;21743;55.786;37.168;2022-08-01T01:31:48;99940.78;;;13.98;71.04
35619;BME280;21743;55.786;37.168;2022-08-01T01:34:17;99926.69;;;13.91;71.02
35619;BME280;21743;55.786;37.168;2022-08-01T01:36:45;99929.50;;;13.90;71.48
35619;BME280;21743;55.786;37.168;2022-08-01T01:39:12;99928.50;;;13.91;71.01
35619;BME280;21743;55.786;37.168;2022-08-01T01:41:40;99937.34;;;13.90;71.05
35619;BME280;21743;55.786;37.168;2022-08-01T01:44:08;99931.25;;;13.81;71.43
35619;BME280;21743;55.786;37.168;2022-08-01T01:46:35;99925.69;;;13.76;71.56
35619;BME280;21743;55.786;37.168;2022-08-01T01:49:02;99935.16;;;13.77;71.60
35619;BME280;21743;55.786;37.168;2022-08-01T01:51:29;99939.44;;;13.78;71.46
35619;BME280;21743;55.786;37.168;2022-08-01T01:53:57;99932.41;;;13.79;71.59
35619;BME280;21743;55.786;37.168;2022-08-01T01:56:26;99929.47;;;13.82;71.39
35619;BME280;21743;55.786;37.168;2022-08-01T01:59:01;99931.09;;;13.83;71.40
35619;BME280;21743;55.786;37.168;2022-08-01T02:01:29;99936.00;;;13.78;71.50
35619;BME280;21743;55.786;37.168;2022-08-01T02:04:01;99930.91;;;13.76;71.61
35619;BME280;21743;55.786;37.168;2022-08-01T02:06:29;99919.00;;;13.73;71.60
35619;BME280;21743;55.786;37.168;2022-08-01T02:08:55;99931.72;;;13.77;71.60
35619;BME280;21743;55.786;37.168;2022-08-01T02:11:22;99922.75;;;13.79;71.59
35619;BME280;21743;55.786;37.168;2022-08-01T02:14:02;99923.72;;;13.78;71.40
35619;BME280;21743;55.786;37.168;2022-08-01T02:16:38;99922.09;;;13.77;71.42
35619;BME280;21743;55.786;37.168;2022-08-01T02:19:05;99926.66;;;13.75;71.40
35619;BME280;21743;55.786;37.168;2022-08-01T02:21:56;99926.34;;;13.78;71.62
35619;BME280;21743;55.786;37.168;2022-08-01T02:26:53;99915.22;;;13.76;71.78
35619;BME280;21743;55.786;37.168;2022-08-01T02:29:25;99917.03;;;13.76;71.71
35619;BME280;21743;55.786;37.168;2022-08-01T02:31:54;99922.75;;;13.71;72.03
35619;BME280;21743;55.786;37.168;2022-08-01T02:34:22;99920.28;;;13.69;72.09
35619;BME280;21743;55.786;37.168;2022-08-01T02:36:52;99922.59;;;13.72;72.12
35619;BME280;21743;55.786;37.168;2022-08-01T02:39:19;99921.44;;;13.75;72.25
35619;BME280;21743;55.786;37.168;2022-08-01T02:41:48;99925.38;;;13.79;72.53
35619;BME280;21743;55.786;37.168;2022-08-01T02:44:23;99928.50;;;13.83;72.18
35619;BME280;21743;55.786;37.168;2022-08-01T02:46:53;99931.94;;;13.83;72.23
35619;BME280;21743;55.786;37.168;2022-08-01T02:49:21;99929.16;;;13.85;72.16
35619;BME280;21743;55.786;37.168;2022-08-01T02:51:48;99929.16;;;13.93;71.88
35619;BME280;21743;55.786;37.168;2022-08-01T02:54:17;99930.16;;;14.00;71.88
35619;BME280;21743;55.786;37.168;2022-08-01T02:56:44;99926.56;;;14.01;72.22
35619;BME280;21743;55.786;37.168;2022-08-01T02:59:15;99924.94;;;14.08;72.21
35619;BME280;21743;55.786;37.168;2022-08-01T03:01:42;99926.59;;;14.17;71.84
35619;BME280;21743;55.786;37.168;2022-08-01T03:04:11;99925.25;;;14.21;71.91
35619;BME280;21743;55.786;37.168;2022-08-01T03:06:38;99917.91;;;14.25;71.92
35619;BME280;21743;55.786;37.168;2022-08-01T03:09:04;99920.22;;;14.28;72.04
35619;BME280;21743;55.786;37.168;2022-08-01T03:11:31;99923.16;;;14.33;71.88
35619;BME280;21743;55.786;37.168;2022-08-01T03:14:04;99923.84;;;14.43;71.66
35619;BME280;21743;55.786;37.168;2022-08-01T03:16:32;99927.94;;;14.46;71.51
35619;BME280;21743;55.786;37.168;2022-08-01T03:19:00;99925.66;;;14.51;71.60
35619;BME280;21743;55.786;37.168;2022-08-01T03:21:28;99928.59;;;14.56;71.50
35619;BME280;21743;55.786;37.168;2022-08-01T03:23:57;99922.84;;;14.60;71.53
35619;BME280;21743;55.786;37.168;2022-08-01T03:26:27;99927.13;;;14.61;71.85
35619;BME280;21743;55.786;37.168;2022-08-01T03:29:02;99920.72;;;14.64;72.01
35619;BME280;21743;55.786;37.168;2022-08-01T03:31:34;99921.84;;;14.69;71.93
35619;BME280;21743;55.786;37.168;2022-08-01T03:34:01;99922.03;;;14.76;71.98
35619;BME280;21743;55.786;37.168;2022-08-01T03:36:28;99918.09;;;14.80;71.96
35619;BME280;21743;55.786;37.168;2022-08-01T03:38:57;99915.94;;;14.84;72.03
35619;BME280;21743;55.786;37.168;2022-08-01T03:41:26;99912.31;;;14.93;71.87
35619;BME280;21743;55.786;37.168;2022-08-01T03:43:59;99911.47;;;15.00;71.92
35619;BME280;21743;55.786;37.168;2022-08-01T03:46:33;99909.81;;;15.07;71.83
35619;BME280;21743;55.786;37.168;2022-08-01T03:49:06;99907.97;;;15.16;71.77
35619;BME280;21743;55.786;37.168;2022-08-01T03:51:33;99906.34;;;15.15;71.98
35619;BME280;21743;55.786;37.168;2022-08-01T03:54:00;99906.16;;;15.25;71.77
35619;BME280;21743;55.786;37.168;2022-08-01T03:56:27;99896.13;;;15.36;71.69
35619;BME280;21743;55.786;37.168;2022-08-01T03:58:59;99907.69;;;15.50;71.71
35619;BME280;21743;55.786;37.168;2022-08-01T04:01:25;99906.50;;;15.61;70.85
35619;BME280;21743;55.786;37.168;2022-08-01T04:03:52;99904.28;;;15.80;70.54
35619;BME280;21743;55.786;37.168;2022-08-01T04:06:18;99899.75;;;15.97;69.99
35619;BME280;21743;55.786;37.168;2022-08-01T04:08:44;99905.22;;;16.10;69.47
35619;BME280;21743;55.786;37.168;2022-08-01T04:11:23;99903.00;;;16.22;69.39
35619;BME280;21743;55.786;37.168;2022-08-01T04:13:49;99895.72;;;16.32;69.32
35619;BME280;21743;55.786;37.168;2022-08-01T04:16:16;99896.25;;;16.42;69.26
35619;BME280;21743;55.786;37.168;2022-08-01T04:18:41;99902.19;;;16.59;69.08
35619;BME280;21743;55.786;37.168;2022-08-01T04:21:07;99896.63;;;16.77;68.55
35619;BME280;21743;55.786;37.168;2022-08-01T04:23:34;99895.47;;;16.94;68.08
35619;BME280;21743;55.786;37.168;2022-08-01T04:26:03;99897.91;;;17.10;67.19
35619;BME280;21743;55.786;37.168;2022-08-01T04:28:31;99897.34;;;17.30;66.27
35619;BME280;21743;55.786;37.168;2022-08-01T04:31:00;99898.22;;;17.51;65.59
35619;BME280;21743;55.786;37.168;2022-08-01T04:33:28;99891.13;;;17.67;64.23
35619;BME280;21743;55.786;37.168;2022-08-01T04:35:56;99897.44;;;17.87;63.79
35619;BME280;21743;55.786;37.168;2022-08-01T04:38:25;99893.34;;;18.06;62.72
35619;BME280;21743;55.786;37.168;2022-08-01T04:40:56;99893.69;;;18.17;63.07
35619;BME280;21743;55.786;37.168;2022-08-01T04:43:22;99900.25;;;18.28;62.13
35619;BME280;21743;55.786;37.168;2022-08-01T04:45:49;99896.91;;;18.41;61.60
35619;BME280;21743;55.786;37.168;2022-08-01T04:48:17;99902.09;;;18.55;61.15
35619;BME280;21743;55.786;37.168;2022-08-01T04:50:45;99889.81;;;18.63;60.59
35619;BME280;21743;55.786;37.168;2022-08-01T04:53:16;99893.75;;;18.80;60.52
35619;BME280;21743;55.786;37.168;2022-08-01T04:55:43;99904.38;;;18.86;60.03
35619;BME280;21743;55.786;37.168;2022-08-01T04:58:10;99904.19;;;18.94;59.45
35619;BME280;21743;55.786;37.168;2022-08-01T05:00:36;99899.97;;;19.00;59.06
35619;BME280;21743;55.786;37.168;2022-08-01T05:03:02;99904.28;;;19.08;58.84
35619;BME280;21743;55.786;37.168;2022-08-01T05:05:28;99892.75;;;19.09;59.08
35619;BME280;21743;55.786;37.168;2022-08-01T05:07:54;99898.41;;;19.12;59.28
35619;BME280;21743;55.786;37.168;2022-08-01T05:10:21;99898.41;;;19.12;59.94
35619;BME280;21743;55.786;37.168;2022-08-01T05:12:47;99883.56;;;19.05;58.80
35619;BME280;21743;55.786;37.168;2022-08-01T05:15:12;99904.13;;;19.16;58.05
35619;BME280;21743;55.786;37.168;2022-08-01T05:17:38;99900.09;;;19.20;57.81
35619;BME280;21743;55.786;37.168;2022-08-01T05:20:04;99893.19;;;19.25;57.52
35619;BME280;21743;55.786;37.168;2022-08-01T05:22:31;99893.63;;;19.29;57.62
35619;BME280;21743;55.786;37.168;2022-08-01T05:24:57;99897.50;;;19.33;57.77
35619;BME280;21743;55.786;37.168;2022-08-01T05:27:25;99891.47;;;19.39;57.78
35619;BME280;21743;55.786;37.168;2022-08-01T05:29:51;99892.91;;;19.48;57.00
35619;BME280;21743;55.786;37.168;2022-08-01T05:32:17;99893.34;;;19.52;56.88
35619;BME280;21743;55.786;37.168;2022-08-01T05:34:43;99891.34;;;19.60;55.96
35619;BME280;21743;55.786;37.168;2022-08-01T05:37:09;99887.91;;;19.66;55.60
35619;BME280;21743;55.786;37.168;2022-08-01T05:39:35;99896.84;;;19.72;54.80
35619;BME280;21743;55.786;37.168;2022-08-01T05:42:01;99890.19;;;19.83;53.92
35619;BME280;21743;55.786;37.168;2022-08-01T05:44:26;99880.84;;;19.87;53.98
35619;BME280;21743;55.786;37.168;2022-08-01T05:46:52;99891.84;;;19.97;54.22
35619;BME280;21743;55.786;37.168;2022-08-01T05:49:18;99888.78;;;20.07;53.94
35619;BME280;21743;55.786;37.168;2022-08-01T05:51:44;99878.06;;;20.15;54.23
35619;BME280;21743;55.786;37.168;2022-08-01T05:54:09;99883.72;;;20.25;53.25
35619;BME280;21743;55.786;37.168;2022-08-01T05:56:35;99878.06;;;20.41;52.95
35619;BME280;21743;55.786;37.168;2022-08-01T05:59:01;99874.59;;;20.54;52.55
35619;BME280;21743;55.786;37.168;2022-08-01T06:01:27;99884.16;;;20.68;52.38
35619;BME280;21743;55.786;37.168;2022-08-01T06:03:53;99878.00;;;20.81;52.73
35619;BME280;21743;55.786;37.168;2022-08-01T06:06:22;99869.47;;;20.85;52.01
35619;BME280;21743;55.786;37.168;2022-08-01T06:08:48;99880.84;;;20.92;52.49
35619;BME280;21743;55.786;37.168;2022-08-01T06:11:14;99882.84;;;20.97;52.31
35619;BME280;21743;55.786;37.168;2022-08-01T06:13:40;99877.16;;;21.00;51.69
35619;BME280;21743;55.786;37.168;2022-08-01T06:16:05;99884.28;;;21.06;50.92
35619;BME280;21743;55.786;37.168;2022-08-01T06:18:31;99880.56;;;21.14;50.42
35619;BME280;21743;55.786;37.168;2022-08-01T06:20:57;99886.69;;;21.21;50.34
35619;BME280;21743;55.786;37.168;2022-08-01T06:23:23;99884.63;;;21.29;50.94
35619;BME280;21743;55.786;37.168;2022-08-01T06:25:52;99884.22;;;21.32;50.21
35619;BME280;21743;55.786;37.168;2022-08-01T06:28:18;99885.41;;;21.36;49.53
35619;BME280;21743;55.786;37.168;2022-08-01T06:30:44;99890.66;;;21.43;49.52
35619;BME280;21743;55.786;37.168;2022-08-01T06:33:10;99881.28;;;21.47;49.93
35619;BME280;21743;55.786;37.168;2022-08-01T06:35:36;99882.72;;;21.50;50.78
35619;BME280;21743;55.786;37.168;2022-08-01T06:38:02;99890.41;;;21.58;50.10
35619;BME280;21743;55.786;37.168;2022-08-01T06:40:28;99895.47;;;21.66;50.27
35619;BME280;21743;55.786;37.168;2022-08-01T06:42:54;99891.34;;;21.70;48.71
35619;BME280;21743;55.786;37.168;2022-08-01T06:45:20;99890.09;;;21.72;47.18
35619;BME280;21743;55.786;37.168;2022-08-01T06:47:48;99889.47;;;21.77;48.13
35619;BME280;21743;55.786;37.168;2022-08-01T06:50:13;99889.06;;;21.80;47.23
35619;BME280;21743;55.786;37.168;2022-08-01T06:52:40;99885.59;;;21.80;47.52
35619;BME280;21743;55.786;37.168;2022-08-01T06:55:07;99884.97;;;21.84;46.68
35619;BME280;21743;55.786;37.168;2022-08-01T06:57:33;99895.28;;;21.92;47.55
35619;BME280;21743;55.786;37.168;2022-08-01T07:00:06;99893.47;;;21.99;47.19
35619;BME280;21743;55.786;37.168;2022-08-01T07:02:37;99898.06;;;22.10;48.51
35619;BME280;21743;55.786;37.168;2022-08-01T07:05:03;99892.47;;;22.19;47.30
35619;BME280;21743;55.786;37.168;2022-08-01T07:07:30;99891.03;;;22.23;48.08
35619;BME280;21743;55.786;37.168;2022-08-01T07:09:57;99893.47;;;22.24;47.12
35619;BME280;21743;55.786;37.168;2022-08-01T07:12:23;99889.50;;;22.33;46.91
35619;BME280;21743;55.786;37.168;2022-08-01T07:14:48;99892.22;;;22.52;46.98
35619;BME280;21743;55.786;37.168;2022-08-01T07:17:14;99886.94;;;22.70;46.23
35619;BME280;21743;55.786;37.168;2022-08-01T07:19:40;99894.16;;;22.88;46.49
35619;BME280;21743;55.786;37.168;2022-08-01T07:22:06;99889.69;;;23.06;47.00
35619;BME280;21743;55.786;37.168;2022-08-01T07:24:32;99882.72;;;23.24;46.39
35619;BME280;21743;55.786;37.168;2022-08-01T07:26:57;99885.94;;;23.44;46.40
35619;BME280;21743;55.786;37.168;2022-08-01T07:29:24;99887.28;;;23.53;45.88
35619;BME280;21743;55.786;37.168;2022-08-01T07:31:54;99886.50;;;23.53;46.03
35619;BME280;21743;55.786;37.168;2022-08-01T07:34:21;99884.53;;;23.60;45.60
35619;BME280;21743;55.786;37.168;2022-08-01T07:36:47;99883.84;;;23.53;45.09
35619;BME280;21743;55.786;37.168;2022-08-01T07:39:13;99882.03;;;23.46;45.75
35619;BME280;21743;55.786;37.168;2022-08-01T07:41:39;99884.91;;;23.45;46.22
35619;BME280;21743;55.786;37.168;2022-08-01T07:44:04;99884.75;;;23.40;46.09
35619;BME280;21743;55.786;37.168;2022-08-01T07:46:30;99882.56;;;23.37;45.32
35619;BME280;21743;55.786;37.168;2022-08-01T07:48:56;99878.84;;;23.38;46.12
35619;BME280;21743;55.786;37.168;2022-08-01T07:51:22;99884.09;;;23.44;44.91
35619;BME280;21743;55.786;37.168;2022-08-01T07:53:48;99876.56;;;23.60;44.56
35619;BME280;21743;55.786;37.168;2022-08-01T07:56:14;99890.63;;;23.78;45.39
35619;BME280;21743;55.786;37.168;2022-08-01T07:58:40;99877.84;;;23.99;44.59
35619;BME280;21743;55.786;37.168;2022-08-01T08:01:06;99889.56;;;24.21;43.05
35619;BME280;21743;55.786;37.168;2022-08-01T08:03:32;99889.50;;;24.28;42.23
35619;BME280;21743;55.786;37.168;2022-08-01T08:05:57;99885.00;;;24.28;41.64
35619;BME280;21743;55.786;37.168;2022-08-01T08:08:23;99876.75;;;24.30;41.78
35619;BME280;21743;55.786;37.168;2022-08-01T08:10:49;99877.69;;;24.24;42.62
35619;BME280;21743;55.786;37.168;2022-08-01T08:13:15;99877.53;;;24.18;43.16
35619;BME280;21743;55.786;37.168;2022-08-01T08:15:41;99874.09;;;24.30;42.53
35619;BME280;21743;55.786;37.168;2022-08-01T08:18:07;99876.44;;;24.49;43.12
35619;BME280;21743;55.786;37.168;2022-08-01T08:20:32;99880.00;;;24.78;41.81
35619;BME280;21743;55.786;37.168;2022-08-01T08:22:58;99872.50;;;24.99;40.97
35619;BME280;21743;55.786;37.168;2022-08-01T08:25:24;99874.31;;;25.10;41.19
35619;BME280;21743;55.786;37.168;2022-08-01T08:27:51;99862.69;;;25.28;41.45
35619;BME280;21743;55.786;37.168;2022-08-01T08:30:17;99867.59;;;25.47;39.90
35619;BME280;21743;55.786;37.168;2022-08-01T08:32:43;99870.28;;;25.76;38.99
35619;BME280;21743;55.786;37.168;2022-08-01T08:35:09;99855.69;;;25.95;38.95
35619;BME280;21743;55.786;37.168;2022-08-01T08:37:38;99861.75;;;26.07;38.78
35619;BME280;21743;55.786;37.168;2022-08-01T08:40:06;99860.53;;;25.98;35.77
35619;BME280;21743;55.786;37.168;2022-08-01T08:42:33;99848.88;;;25.87;35.82
35619;BME280;21743;55.786;37.168;2022-08-01T08:45:00;99853.25;;;25.93;36.68
35619;BME280;21743;55.786;37.168;2022-08-01T08:47:27;99850.66;;;25.99;37.35
35619;BME280;21743;55.786;37.168;2022-08-01T08:49:55;99854.97;;;26.16;36.94
35619;BME280;21743;55.786;37.168;2022-08-01T08:52:22;99854.63;;;26.46;36.73
35619;BME280;21743;55.786;37.168;2022-08-01T08:54:49;99846.03;;;26.61;35.31
35619;BME280;21743;55.786;37.168;2022-08-01T08:57:15;99836.81;;;26.69;36.50
35619;BME280;21743;55.786;37.168;2022-08-01T08:59:44;99840.28;;;26.69;36.60
35619;BME280;21743;55.786;37.168;2022-08-01T09:02:11;99845.47;;;26.59;35.38
35619;BME280;21743;55.786;37.168;2022-08-01T09:04:38;99845.59;;;26.47;34.65
35619;BME280;21743;55.786;37.168;2022-08-01T09:07:06;99841.78;;;26.43;35.79
35619;BME280;21743;55.786;37.168;2022-08-01T09:09:32;99840.81;;;26.49;36.20
35619;BME280;21743;55.786;37.168;2022-08-01T09:11:58;99837.81;;;26.46;34.75
35619;BME280;21743;55.786;37.168;2022-08-01T09:14:25;99836.63;;;26.37;34.95
35619;BME280;21743;55.786;37.168;2022-08-01T09:17:05;99846.34;;;26.43;35.92
35619;BME280;21743;55.786;37.168;2022-08-01T09:19:37;99835.16;;;26.46;35.03
35619;BME280;21743;55.786;37.168;2022-08-01T09:22:05;99828.44;;;26.43;36.14
35619;BME280;21743;55.786;37.168;2022-08-01T09:24:34;99826.09;;;26.47;36.97
35619;BME280;21743;55.786;37.168;2022-08-01T09:27:02;99829.66;;;26.52;38.18
35619;BME280;21743;55.786;37.168;2022-08-01T09:29:40;99827.66;;;26.43;36.80
35619;BME280;21743;55.786;37.168;2022-08-01T09:32:06;99832.44;;;26.41;37.90
35619;BME280;21743;55.786;37.168;2022-08-01T09:34:34;99829.25;;;26.44;38.11
35619;BME280;21743;55.786;37.168;2022-08-01T09:37:01;99834.84;;;26.42;36.95
35619;BME280;21743;55.786;37.168;2022-08-01T09:39:31;99832.75;;;26.27;35.86
35619;BME280;21743;55.786;37.168;2022-08-01T09:41:59;99829.66;;;26.02;36.37
35619;BME280;21743;55.786;37.168;2022-08-01T09:44:40;99839.34;;;25.75;37.12
35619;BME280;21743;55.786;37.168;2022-08-01T09:47:06;99841.19;;;25.46;37.58
35619;BME280;21743;55.786;37.168;2022-08-01T09:49:34;99833.84;;;25.24;37.69
35619;BME280;21743;55.786;37.168;2022-08-01T09:54:51;99820.34;;;25.14;38.66
35619;BME280;21743;55.786;37.168;2022-08-01T09:57:19;99826.22;;;25.28;40.16
35619;BME280;21743;55.786;37.168;2022-08-01T09:59:47;99824.50;;;25.50;39.98
35619;BME280;21743;55.786;37.168;2022-08-01T10:02:25;99820.53;;;25.65;37.32
35619;BME280;21743;55.786;37.168;2022-08-01T10:04:52;99821.72;;;25.45;36.71
35619;BME280;21743;55.786;37.168;2022-08-01T10:07:18;99818.78;;;25.30;36.95
35619;BME280;21743;55.786;37.168;2022-08-01T10:09:46;99830.19;;;25.14;38.80
35619;BME280;21743;55.786;37.168;2022-08-01T10:12:17;99834.75;;;25.02;38.92
35619;BME280;21743;55.786;37.168;2022-08-01T10:14:46;99827.31;;;24.92;39.32
35619;BME280;21743;55.786;37.168;2022-08-01T10:17:16;99822.59;;;24.82;38.00
35619;BME280;21743;55.786;37.168;2022-08-01T10:19:43;99822.97;;;24.74;38.80
35619;BME280;21743;55.786;37.168;2022-08-01T10:22:12;99821.59;;;24.60;38.85
35619;BME280;21743;55.786;37.168;2022-08-01T10:24:46;99826.59;;;24.57;39.85
35619;BME280;21743;55.786;37.168;2022-08-01T10:27:15;99823.69;;;24.46;39.65
35619;BME280;21743;55.786;37.168;2022-08-01T10:29:50;99826.13;;;24.48;40.32
35619;BME280;21743;55.786;37.168;2022-08-01T10:32:17;99823.69;;;24.46;40.40
35619;BME280;21743;55.786;37.168;2022-08-01T10:34:44;99831.34;;;24.43;41.11
35619;BME280;21743;55.786;37.168;2022-08-01T10:37:12;99828.41;;;24.44;40.91
35619;BME280;21743;55.786;37.168;2022-08-01T10:39:39;99818.38;;;24.46;41.11
35619;BME280;21743;55.786;37.168;2022-08-01T10:42:05;99832.94;;;24.56;41.73
35619;BME280;21743;55.786;37.168;2022-08-01T10:44:32;99833.53;;;24.58;40.02
35619;BME280;21743;55.786;37.168;2022-08-01T10:47:12;99826.34;;;24.58;39.10
35619;BME280;21743;55.786;37.168;2022-08-01T10:50:02;99831.78;;;24.63;39.45
35619;BME280;21743;55.786;37.168;2022-08-01T10:52:30;99822.53;;;24.66;39.56
35619;BME280;21743;55.786;37.168;2022-08-01T10:55:06;99820.88;;;24.76;39.37
35619;BME280;21743;55.786;37.168;2022-08-01T10:57:46;99819.03;;;24.88;38.78
35619;BME280;21743;55.786;37.168;2022-08-01T11:00:20;99816.91;;;24.90;37.29
35619;BME280;21743;55.786;37.168;2022-08-01T11:03:01;99813.81;;;24.94;38.92
35619;BME280;21743;55.786;37.168;2022-08-01T11:05:31;99812.41;;;25.03;37.77
35619;BME280;21743;55.786;37.168;2022-08-01T11:08:01;99805.31;;;25.08;36.95
35619;BME280;21743;55.786;37.168;2022-08-01T11:12:57;99800.56;;;25.10;37.84
35619;BME280;21743;55.786;37.168;2022-08-01T11:15:24;99793.72;;;25.14;38.43
35619;BME280;21743;55.786;37.168;2022-08-01T11:17:51;99801.47;;;25.16;36.72
35619;BME280;21743;55.786;37.168;2022-08-01T11:20:24;99799.63;;;25.16;38.08
35619;BME280;21743;55.786;37.168;2022-08-01T11:30:53;99801.25;;;25.06;39.06
35619;BME280;21743;55.786;37.168;2022-08-01T11:38:47;99787.75;;;25.24;38.60
35619;BME280;21743;55.786;37.168;2022-08-01T11:44:16;99788.44;;;25.31;38.21
35619;BME280;21743;55.786;37.168;2022-08-01T11:52:07;99779.94;;;25.17;37.87
35619;BME280;21743;55.786;37.168;2022-08-01T11:54:54;99779.84;;;25.12;37.04
35619;BME280;21743;55.786;37.168;2022-08-01T11:57:24;99771.50;;;25.09;37.00
35619;BME280;21743;55.786;37.168;2022-08-01T11:59:54;99772.31;;;25.09;37.19
35619;BME280;21743;55.786;37.168;2022-08-01T12:02:23;99774.16;;;25.09;37.41
35619;BME280;21743;55.786;37.168;2022-08-01T12:04:58;99771.19;;;25.05;35.91
35619;BME280;21743;55.786;37.168;2022-08-01T12:07:26;99764.47;;;25.03;37.17
35619;BME280;21743;55.786;37.168;2022-08-01T12:10:04;99769.31;;;25.06;37.53
35619;BME280;21743;55.786;37.168;2022-08-01T12:12:32;99763.50;;;25.09;37.10
35619;BME280;21743;55.786;37.168;2022-08-01T12:15:00;99759.00;;;25.09;36.78
35619;BME280;21743;55.786;37.168;2022-08-01T12:17:31;99763.28;;;25.10;36.21
35619;BME280;21743;55.786;37.168;2022-08-01T12:19:58;99765.59;;;25.07;35.74
35619;BME280;21743;55.786;37.168;2022-08-01T12:22:24;99778.09;;;25.06;35.82
35619;BME280;21743;55.786;37.168;2022-08-01T12:24:51;99771.19;;;25.05;35.69
35619;BME280;21743;55.786;37.168;2022-08-01T12:27:25;99758.94;;;25.04;36.90
35619;BME280;21743;55.786;37.168;2022-08-01T12:29:51;99756.81;;;25.06;38.07
35619;BME280;21743;55.786;37.168;2022-08-01T12:32:34;99758.66;;;25.06;36.83
35619;BME280;21743;55.786;37.168;2022-08-01T12:35:11;99764.78;;;25.06;36.63
35619;BME280;21743;55.786;37.168;2022-08-01T12:37:38;99759.00;;;25.09;37.71
35619;BME280;21743;55.786;37.168;2022-08-01T12:40:21;99759.72;;;25.05;37.12
35619;BME280;21743;55.786;37.168;2022-08-01T12:42:50;99761.81;;;25.03;37.45
35619;BME280;21743;55.786;37.168;2022-08-01T12:45:19;99760.78;;;25.04;37.18
35619;BME280;21743;55.786;37.168;2022-08-01T12:47:46;99748.41;;;24.98;36.03
35619;BME280;21743;55.786;37.168;2022-08-01T12:50:15;99754.31;;;24.88;36.47
35619;BME280;21743;55.786;37.168;2022-08-01T12:52:41;99752.47;;;24.77;36.12
35619;BME280;21743;55.786;37.168;2022-08-01T12:55:15;99754.38;;;24.65;37.72
35619;BME280;21743;55.786;37.168;2022-08-01T12:57:45;99760.38;;;24.60;38.63
35619;BME280;21743;55.786;37.168;2022-08-01T13:00:23;99753.81;;;24.51;39.62
35619;BME280;21743;55.786;37.168;2022-08-01T13:03:00;99747.84;;;24.44;39.58
35619;BME280;21743;55.786;37.168;2022-08-01T13:05:26;99750.16;;;24.40;40.46
35619;BME280;21743;55.786;37.168;2022-08-01T13:07:53;99748.63;;;24.33;40.63
35619;BME280;21743;55.786;37.168;2022-08-01T13:10:29;99733.88;;;24.25;39.83
35619;BME280;21743;55.786;37.168;2022-08-01T13:12:57;99741.47;;;24.33;39.60
35619;BME280;21743;55.786;37.168;2022-08-01T13:15:29;99738.47;;;24.41;39.46
35619;BME280;21743;55.786;37.168;2022-08-01T13:17:58;99737.28;;;24.49;38.69
35619;BME280;21743;55.786;37.168;2022-08-01T13:20:30;99739.81;;;24.56;38.35
35619;BME280;21743;55.786;37.168;2022-08-01T13:23:17;99737.84;;;24.51;38.63
35619;BME280;21743;55.786;37.168;2022-08-01T13:25:54;99743.06;;;24.46;40.06
35619;BME280;21743;55.786;37.168;2022-08-01T13:28:23;99739.97;;;24.37;40.03
35619;BME280;21743;55.786;37.168;2022-08-01T13:30:57;99744.59;;;24.30;40.11
35619;BME280;21743;55.786;37.168;2022-08-01T13:33:26;99741.69;;;24.20;39.92